createdAt,value
2023-01-27T00:00:50.384Z,52.60
2023-01-27T00:03:18.122Z,52.60
2023-01-27T00:05:45.928Z,52.70
2023-01-27T00:08:12.961Z,52.60
2023-01-27T00:10:42.335Z,52.60
2023-01-27T00:13:31.928Z,52.50
2023-01-27T00:16:06.977Z,52.60
2023-01-27T00:18:33.620Z,52.60
2023-01-27T00:21:18.891Z,52.60
2023-01-27T00:24:04.221Z,52.60
2023-01-27T00:26:30.935Z,52.70
2023-01-27T00:28:57.590Z,52.80
2023-01-27T00:31:43.121Z,52.70
2023-01-27T00:34:10.023Z,52.80
2023-01-27T00:36:39.189Z,52.70
2023-01-27T00:39:07.287Z,52.70
2023-01-27T00:41:34.147Z,52.70
2023-01-27T00:44:01.568Z,52.80
2023-01-27T00:46:28.574Z,52.70
2023-01-27T00:48:55.215Z,52.70
2023-01-27T00:51:22.068Z,52.80
2023-01-27T00:53:48.988Z,52.80
2023-01-27T00:56:16.167Z,52.80
2023-01-27T00:58:43.017Z,52.70
2023-01-27T01:01:12.625Z,52.70
2023-01-27T01:03:39.355Z,52.70
2023-01-27T01:06:09.224Z,52.70
2023-01-27T01:08:37.197Z,52.80
2023-01-27T01:11:05.478Z,52.70
2023-01-27T01:13:32.671Z,52.80
2023-01-27T01:16:09.474Z,52.70
2023-01-27T01:18:36.264Z,52.70
2023-01-27T01:21:03.105Z,52.70
2023-01-27T01:23:30.030Z,52.80
2023-01-27T01:25:57.375Z,52.80
2023-01-27T01:28:25.183Z,52.80
2023-01-27T01:30:52.228Z,52.70
2023-01-27T01:33:18.924Z,52.80
2023-01-27T01:35:45.657Z,52.80
2023-01-27T01:38:13.158Z,52.80
2023-01-27T01:40:44.294Z,52.70
2023-01-27T01:43:15.244Z,52.70
2023-01-27T01:45:44.950Z,52.80
2023-01-27T01:48:34.524Z,52.80
2023-01-27T01:51:10.641Z,52.80
2023-01-27T01:53:57.560Z,52.80
2023-01-27T01:56:28.972Z,52.80
2023-01-27T01:58:56.443Z,52.70
2023-01-27T02:01:23.120Z,52.80
2023-01-27T02:03:56.610Z,52.70
2023-01-27T02:06:23.523Z,52.70
2023-01-27T02:08:51.126Z,52.70
2023-01-27T02:11:18.951Z,52.80
2023-01-27T02:13:45.866Z,52.70
2023-01-27T02:16:12.946Z,52.80
2023-01-27T02:18:43.417Z,52.80
2023-01-27T02:21:10.187Z,52.80
2023-01-27T02:24:01.933Z,52.80
2023-01-27T02:26:32.054Z,52.70
2023-01-27T02:29:02.539Z,52.80
2023-01-27T02:31:29.260Z,52.70
2023-01-27T02:34:04.737Z,52.80
2023-01-27T02:36:35.476Z,52.80
2023-01-27T02:39:03.364Z,52.80
2023-01-27T02:41:51.293Z,52.80
2023-01-27T02:44:17.881Z,52.80
2023-01-27T02:46:44.555Z,52.70
2023-01-27T02:49:11.550Z,52.80
2023-01-27T02:51:39.391Z,52.70
2023-01-27T02:54:06.240Z,52.80
2023-01-27T02:56:33.117Z,52.80
2023-01-27T02:58:59.677Z,52.80
2023-01-27T03:01:26.391Z,52.70
2023-01-27T03:03:53.056Z,52.80
2023-01-27T03:06:20.151Z,52.80
2023-01-27T03:08:46.789Z,52.80
2023-01-27T03:11:13.367Z,52.70
2023-01-27T03:13:41.155Z,52.80
2023-01-27T03:16:26.476Z,52.80
2023-01-27T03:18:56.473Z,52.80
2023-01-27T03:21:23.249Z,52.80
2023-01-27T03:23:49.946Z,52.70
2023-01-27T03:26:16.638Z,52.80
2023-01-27T03:28:43.574Z,52.70
2023-01-27T03:31:19.505Z,52.70
2023-01-27T03:33:47.712Z,52.60
2023-01-27T03:36:35.460Z,52.70
2023-01-27T03:39:20.662Z,52.70
2023-01-27T03:42:06.031Z,52.70
2023-01-27T03:44:51.423Z,52.70
2023-01-27T03:47:18.104Z,52.70
2023-01-27T03:49:44.678Z,52.60
2023-01-27T03:52:11.240Z,52.60
2023-01-27T03:54:38.257Z,52.70
2023-01-27T03:57:06.086Z,52.60
2023-01-27T03:59:32.941Z,52.60
2023-01-27T04:02:20.093Z,52.60
2023-01-27T04:05:05.797Z,52.70
2023-01-27T04:07:36.038Z,52.60
2023-01-27T04:10:04.109Z,52.50
2023-01-27T04:12:30.734Z,52.60
2023-01-27T04:14:57.786Z,52.60
2023-01-27T04:17:24.374Z,52.50
2023-01-27T04:19:50.985Z,52.60
2023-01-27T04:22:17.598Z,52.60
2023-01-27T04:24:44.354Z,52.60
2023-01-27T04:27:13.841Z,52.60
2023-01-27T04:29:41.920Z,52.50
2023-01-27T04:32:12.549Z,53.10
2023-01-27T04:34:40.267Z,52.50
2023-01-27T04:37:08.083Z,52.50
2023-01-27T04:39:34.983Z,52.40
2023-01-27T04:42:01.709Z,52.40
2023-01-27T04:44:28.310Z,52.60
2023-01-27T04:46:54.937Z,52.50
2023-01-27T04:49:22.258Z,52.60
2023-01-27T04:51:49.001Z,52.40
2023-01-27T04:54:15.909Z,52.50
2023-01-27T04:56:55.038Z,52.50
2023-01-27T04:59:21.824Z,52.50
2023-01-27T05:01:48.583Z,52.50
2023-01-27T05:04:15.242Z,52.50
2023-01-27T05:06:41.881Z,52.40
2023-01-27T05:09:08.541Z,52.50
2023-01-27T05:11:35.289Z,52.40
2023-01-27T05:14:01.892Z,52.60
2023-01-27T05:16:28.591Z,52.50
2023-01-27T05:18:56.213Z,52.60
2023-01-27T05:21:25.343Z,52.50
2023-01-27T05:23:51.933Z,52.60
2023-01-27T05:26:21.569Z,52.60
2023-01-27T05:28:49.477Z,52.60
2023-01-27T05:31:19.128Z,52.50
2023-01-27T05:33:47.675Z,52.50
2023-01-27T05:36:16.500Z,52.50
2023-01-27T05:38:43.487Z,52.50
2023-01-27T05:41:11.788Z,52.60
2023-01-27T05:43:40.126Z,52.50
2023-01-27T05:46:13.041Z,52.50
2023-01-27T05:48:43.268Z,52.50
2023-01-27T05:51:13.476Z,52.40
2023-01-27T05:53:41.295Z,52.60
2023-01-27T05:56:10.459Z,52.50
2023-01-27T05:58:37.786Z,52.40
2023-01-27T06:01:14.659Z,52.40
2023-01-27T06:03:42.073Z,52.40
2023-01-27T06:06:09.659Z,52.40
2023-01-27T06:08:37.401Z,52.50
2023-01-27T06:11:04.290Z,52.50
2023-01-27T06:13:31.229Z,52.50
2023-01-27T06:15:57.914Z,52.50
2023-01-27T06:18:24.468Z,52.50
2023-01-27T06:20:51.344Z,52.40
2023-01-27T06:23:18.424Z,52.40
2023-01-27T06:25:47.143Z,52.70
2023-01-27T06:28:27.895Z,53.10
2023-01-27T06:30:56.310Z,53.00
2023-01-27T06:33:23.193Z,53.20
2023-01-27T06:35:49.903Z,53.90
2023-01-27T06:38:16.678Z,52.90
2023-01-27T06:40:44.168Z,53.30
2023-01-27T06:43:12.945Z,53.20
2023-01-27T06:45:39.983Z,53.40
2023-01-27T06:48:08.344Z,50.50
2023-01-27T06:50:34.912Z,51.60
2023-01-27T06:53:04.313Z,52.70
2023-01-27T06:55:30.977Z,53.30
2023-01-27T06:57:57.789Z,53.80
2023-01-27T07:00:24.448Z,54.00
2023-01-27T07:02:51.256Z,53.80
2023-01-27T07:05:17.900Z,54.10
2023-01-27T07:07:44.478Z,54.20
2023-01-27T07:10:12.060Z,54.30
2023-01-27T07:12:39.617Z,54.30
2023-01-27T07:15:07.844Z,54.20
2023-01-27T07:17:35.320Z,54.10
2023-01-27T07:20:02.704Z,54.00
2023-01-27T07:22:29.353Z,54.00
2023-01-27T07:24:55.934Z,54.00
2023-01-27T07:27:25.728Z,54.00
2023-01-27T07:29:52.415Z,54.00
2023-01-27T07:32:19.119Z,53.90
2023-01-27T07:34:45.684Z,53.80
2023-01-27T07:37:13.079Z,53.80
2023-01-27T07:39:39.694Z,53.80
2023-01-27T07:42:08.663Z,53.70
2023-01-27T07:44:35.215Z,53.70
2023-01-27T07:47:01.896Z,53.70
2023-01-27T07:49:28.556Z,53.60
2023-01-27T07:51:55.134Z,53.60
2023-01-27T07:54:21.768Z,53.60
2023-01-27T07:56:48.478Z,53.60
2023-01-27T07:59:15.032Z,53.50
2023-01-27T08:01:41.877Z,53.50
2023-01-27T08:04:08.761Z,53.40
2023-01-27T08:06:37.453Z,53.30
2023-01-27T08:09:04.083Z,53.30
2023-01-27T08:11:30.793Z,53.30
2023-01-27T08:14:00.736Z,53.90
2023-01-27T08:16:27.838Z,53.20
2023-01-27T08:18:54.769Z,53.20
2023-01-27T08:21:22.257Z,53.30
2023-01-27T08:23:48.976Z,53.40
2023-01-27T08:26:15.552Z,53.30
2023-01-27T08:28:42.328Z,53.30
2023-01-27T08:31:12.522Z,53.40
2023-01-27T08:33:40.449Z,53.20
2023-01-27T08:36:12.987Z,53.30
2023-01-27T08:38:40.809Z,53.20
2023-01-27T08:41:10.963Z,53.20
2023-01-27T08:43:37.874Z,53.20
2023-01-27T08:46:06.436Z,53.20
2023-01-27T08:48:34.142Z,53.20
2023-01-27T08:51:01.519Z,53.20
2023-01-27T08:53:28.561Z,53.20
2023-01-27T08:56:02.780Z,53.20
2023-01-27T08:58:29.457Z,53.20
2023-01-27T09:00:58.972Z,53.20
2023-01-27T09:03:25.944Z,53.20
2023-01-27T09:05:52.668Z,53.10
2023-01-27T09:08:19.260Z,53.00
2023-01-27T09:10:45.844Z,53.10
2023-01-27T09:13:12.515Z,53.10
2023-01-27T09:15:40.605Z,53.00
2023-01-27T09:18:07.368Z,53.00
2023-01-27T09:20:36.947Z,52.90
2023-01-27T09:23:05.129Z,52.90
2023-01-27T09:25:32.075Z,52.90
2023-01-27T09:28:00.155Z,52.90
2023-01-27T09:30:27.996Z,52.90
2023-01-27T09:33:00.072Z,52.90
2023-01-27T09:35:30.205Z,52.90
2023-01-27T09:37:58.569Z,52.70
2023-01-27T09:40:54.621Z,52.80
2023-01-27T09:43:52.882Z,52.80
2023-01-27T09:46:44.322Z,52.70
2023-01-27T09:49:35.273Z,52.70
2023-01-27T09:52:19.498Z,52.60
2023-01-27T09:55:07.341Z,52.60
2023-01-27T09:58:02.604Z,52.60
2023-01-27T10:00:48.041Z,52.60
2023-01-27T10:03:14.566Z,52.60
2023-01-27T10:06:25.461Z,52.60
2023-01-27T10:09:19.963Z,52.50
2023-01-27T10:11:55.544Z,52.50
2023-01-27T10:14:45.412Z,52.40
2023-01-27T10:17:46.174Z,52.40
2023-01-27T10:21:06.801Z,52.40
2023-01-27T10:24:08.194Z,52.40
2023-01-27T10:26:50.053Z,52.40
2023-01-27T10:29:19.660Z,52.30
2023-01-27T10:32:07.321Z,52.20
2023-01-27T10:34:43.500Z,52.10
2023-01-27T10:37:26.736Z,52.30
2023-01-27T10:40:08.163Z,52.20
2023-01-27T10:43:02.249Z,52.10
2023-01-27T10:45:38.113Z,52.10
2023-01-27T10:48:21.144Z,52.10
2023-01-27T10:51:10.952Z,51.90
2023-01-27T10:54:04.090Z,52.00
2023-01-27T10:56:42.306Z,51.90
2023-01-27T11:00:05.311Z,51.90
2023-01-27T11:02:48.533Z,51.80
2023-01-27T11:05:21.312Z,51.90
2023-01-27T11:07:56.920Z,51.80
2023-01-27T11:10:30.591Z,51.70
2023-01-27T11:12:59.479Z,51.70
2023-01-27T11:15:34.184Z,51.70
2023-01-27T11:18:17.601Z,51.60
2023-01-27T11:20:50.519Z,51.60
2023-01-27T11:23:27.241Z,51.50
2023-01-27T11:26:09.806Z,51.60
2023-01-27T11:28:45.465Z,51.60
2023-01-27T11:31:12.085Z,51.50
2023-01-27T11:34:05.627Z,51.50
2023-01-27T11:36:34.602Z,51.40
2023-01-27T11:39:04.604Z,51.40
2023-01-27T11:41:35.409Z,51.40
2023-01-27T11:44:12.084Z,51.30
2023-01-27T11:46:38.705Z,51.30
2023-01-27T11:49:06.639Z,51.30
2023-01-27T11:51:39.551Z,51.10
2023-01-27T11:54:10.898Z,51.10
2023-01-27T11:56:39.517Z,51.20
2023-01-27T11:59:20.541Z,51.10
2023-01-27T12:01:57.754Z,51.10
2023-01-27T12:04:51.667Z,51.10
2023-01-27T12:07:33.647Z,51.00
2023-01-27T12:10:00.249Z,51.00
2023-01-27T12:12:27.856Z,51.10
2023-01-27T12:14:57.753Z,51.00
2023-01-27T12:17:27.709Z,51.00
2023-01-27T12:19:57.399Z,51.10
2023-01-27T12:22:34.339Z,50.90
2023-01-27T12:25:08.235Z,51.00
2023-01-27T12:27:47.889Z,50.90
2023-01-27T12:30:33.675Z,50.90
2023-01-27T12:33:10.855Z,50.90
2023-01-27T12:35:37.679Z,50.70
2023-01-27T12:38:25.428Z,50.80
2023-01-27T12:41:01.081Z,50.80
2023-01-27T12:43:29.254Z,50.80
2023-01-27T12:46:06.302Z,50.80
2023-01-27T12:48:36.413Z,50.80
2023-01-27T12:51:14.513Z,50.70
2023-01-27T12:53:44.028Z,50.60
2023-01-27T12:56:20.676Z,50.70
2023-01-27T12:58:59.958Z,50.70
2023-01-27T13:01:36.323Z,50.50
2023-01-27T13:04:16.979Z,50.60
2023-01-27T13:06:56.634Z,50.70
2023-01-27T13:09:36.710Z,50.60
2023-01-27T13:12:47.665Z,50.60
2023-01-27T13:15:19.236Z,50.70
2023-01-27T13:17:48.387Z,50.60
2023-01-27T13:20:20.930Z,50.50
2023-01-27T13:22:51.437Z,50.60
2023-01-27T13:25:34.913Z,50.60
2023-01-27T13:28:02.125Z,50.40
2023-01-27T13:30:40.338Z,50.50
2023-01-27T13:33:30.475Z,50.40
2023-01-27T13:36:04.241Z,50.40
2023-01-27T13:38:40.251Z,50.40
2023-01-27T13:41:13.074Z,50.40
2023-01-27T13:43:46.781Z,50.50
2023-01-27T13:46:19.815Z,50.40
2023-01-27T13:48:57.059Z,50.30
2023-01-27T13:51:30.064Z,50.50
2023-01-27T13:54:04.320Z,50.30
2023-01-27T13:57:02.001Z,50.30
2023-01-27T13:59:58.148Z,50.30
2023-01-27T14:02:56.322Z,50.20
2023-01-27T14:05:55.013Z,50.30
2023-01-27T14:09:00.411Z,50.20
2023-01-27T14:11:32.179Z,50.10
2023-01-27T14:14:16.907Z,50.30
2023-01-27T14:17:17.141Z,50.00
2023-01-27T14:19:53.008Z,50.20
2023-01-27T14:22:26.513Z,50.10
2023-01-27T14:25:17.220Z,50.20
2023-01-27T14:27:48.610Z,50.10
2023-01-27T14:30:31.418Z,50.20
2023-01-27T14:33:02.192Z,50.10
2023-01-27T14:35:55.962Z,50.00
2023-01-27T14:38:58.864Z,50.00
2023-01-27T14:41:45.766Z,50.10
2023-01-27T14:44:43.924Z,50.00
2023-01-27T14:47:28.102Z,49.90
2023-01-27T14:50:32.756Z,50.00
2023-01-27T14:53:03.301Z,50.00
2023-01-27T14:55:46.364Z,49.80
2023-01-27T14:58:31.533Z,50.00
2023-01-27T15:01:25.748Z,49.90
2023-01-27T15:04:18.692Z,49.90
2023-01-27T15:07:01.139Z,50.00
2023-01-27T15:09:53.874Z,49.80
2023-01-27T15:12:39.344Z,49.80
2023-01-27T15:15:43.352Z,49.80
2023-01-27T15:18:15.186Z,49.90
2023-01-27T15:21:30.059Z,49.90
2023-01-27T15:24:04.183Z,49.80
2023-01-27T15:26:32.578Z,49.80
2023-01-27T15:29:00.389Z,49.80
2023-01-27T15:31:29.591Z,49.70
2023-01-27T15:34:22.193Z,49.80
2023-01-27T15:37:19.096Z,49.80
2023-01-27T15:40:16.408Z,49.80
2023-01-27T15:43:06.529Z,49.70
2023-01-27T15:45:34.734Z,49.70
2023-01-27T15:48:14.327Z,49.60
2023-01-27T15:50:49.875Z,49.70
2023-01-27T15:53:24.504Z,48.00
2023-01-27T15:55:53.286Z,39.80
2023-01-27T15:58:40.570Z,43.00
2023-01-27T16:01:23.313Z,45.50
2023-01-27T16:03:51.560Z,48.10
2023-01-27T16:06:24.419Z,48.80
2023-01-27T16:09:00.249Z,49.70
2023-01-27T16:11:29.852Z,49.70
2023-01-27T16:14:11.479Z,49.70
2023-01-27T16:16:47.164Z,49.70
2023-01-27T16:19:13.726Z,49.70
2023-01-27T16:22:12.763Z,49.80
2023-01-27T16:24:44.255Z,49.90
2023-01-27T16:27:34.073Z,50.00
2023-01-27T16:30:44.751Z,50.10
2023-01-27T16:33:27.709Z,40.40
2023-01-27T16:36:00.915Z,46.40
2023-01-27T16:38:33.572Z,47.90
2023-01-27T16:41:03.619Z,47.70
2023-01-27T16:43:44.000Z,47.80
2023-01-27T16:46:41.631Z,48.40
2023-01-27T16:49:27.230Z,49.30
2023-01-27T16:51:59.815Z,49.30
2023-01-27T16:54:42.390Z,49.30
2023-01-27T16:57:31.548Z,48.50
2023-01-27T17:00:01.211Z,49.20
2023-01-27T17:02:29.927Z,49.40
2023-01-27T17:05:00.088Z,49.40
2023-01-27T17:07:26.834Z,49.40
2023-01-27T17:09:58.753Z,49.30
2023-01-27T17:12:34.152Z,49.30
2023-01-27T17:15:14.926Z,49.30
2023-01-27T17:17:42.229Z,49.50
2023-01-27T17:20:19.354Z,49.60
2023-01-27T17:22:48.568Z,49.60
2023-01-27T17:25:22.517Z,49.80
2023-01-27T17:27:49.165Z,49.70
2023-01-27T17:30:39.380Z,49.80
2023-01-27T17:33:13.545Z,49.90
2023-01-27T17:35:41.093Z,49.90
2023-01-27T17:38:16.645Z,50.00
2023-01-27T17:40:45.735Z,50.00
2023-01-27T17:43:35.896Z,50.10
2023-01-27T17:46:05.563Z,50.10
2023-01-27T17:48:33.738Z,50.20
2023-01-27T17:51:00.372Z,50.20
2023-01-27T17:53:28.371Z,50.40
2023-01-27T17:55:55.667Z,50.30
2023-01-27T17:58:27.108Z,48.30
2023-01-27T18:00:55.673Z,50.10
2023-01-27T18:03:26.802Z,50.00
2023-01-27T18:05:54.551Z,50.70
2023-01-27T18:08:23.495Z,50.40
2023-01-27T18:10:50.901Z,50.70
2023-01-27T18:13:20.489Z,51.10
2023-01-27T18:16:19.604Z,51.20
2023-01-27T18:18:47.125Z,42.60
2023-01-27T18:21:24.105Z,39.80
2023-01-27T18:23:55.459Z,39.10
2023-01-27T18:26:22.192Z,41.70
2023-01-27T18:28:53.180Z,43.80
2023-01-27T18:31:24.553Z,44.70
2023-01-27T18:34:20.186Z,45.00
2023-01-27T18:36:53.982Z,45.00
2023-01-27T18:39:38.443Z,45.10
2023-01-27T18:42:15.064Z,45.30
2023-01-27T18:44:41.785Z,45.60
2023-01-27T18:47:17.634Z,45.80
2023-01-27T18:49:49.260Z,46.10
2023-01-27T18:52:16.603Z,46.20
2023-01-27T18:54:43.893Z,46.30
2023-01-27T18:57:11.171Z,46.60
2023-01-27T18:59:37.859Z,46.80
2023-01-27T19:02:12.160Z,46.90
2023-01-27T19:04:38.787Z,47.00
2023-01-27T19:07:18.361Z,47.20
2023-01-27T19:09:46.666Z,47.40
2023-01-27T19:12:13.271Z,47.50
2023-01-27T19:14:41.725Z,47.60
2023-01-27T19:17:22.648Z,47.70
2023-01-27T19:19:49.323Z,47.80
2023-01-27T19:22:17.558Z,48.00
2023-01-27T19:24:45.440Z,48.00
2023-01-27T19:27:14.058Z,48.10
2023-01-27T19:29:41.144Z,48.20
2023-01-27T19:32:13.017Z,48.30
2023-01-27T19:34:39.678Z,48.40
2023-01-27T19:37:15.995Z,48.50
2023-01-27T19:39:44.937Z,48.50
2023-01-27T19:42:14.714Z,48.60
2023-01-27T19:44:41.453Z,48.60
2023-01-27T19:47:14.064Z,48.70
2023-01-27T19:49:42.233Z,48.80
2023-01-27T19:52:09.958Z,48.90
2023-01-27T19:54:36.674Z,48.90
2023-01-27T19:57:04.901Z,49.10
2023-01-27T19:59:31.663Z,49.00
2023-01-27T20:01:58.295Z,49.10
2023-01-27T20:04:26.498Z,49.20
2023-01-27T20:06:53.191Z,49.20
2023-01-27T20:09:19.894Z,49.20
2023-01-27T20:11:46.542Z,49.20
2023-01-27T20:14:15.518Z,49.30
2023-01-27T20:16:43.139Z,49.40
2023-01-27T20:19:11.876Z,49.40
2023-01-27T20:21:38.638Z,49.40
2023-01-27T20:24:05.628Z,49.50
2023-01-27T20:26:32.997Z,49.50
2023-01-27T20:29:00.109Z,49.50
2023-01-27T20:31:26.928Z,49.60
2023-01-27T20:33:53.629Z,49.60
2023-01-27T20:36:22.871Z,49.60
2023-01-27T20:38:50.025Z,49.70
2023-01-27T20:41:19.739Z,49.70
2023-01-27T20:43:46.865Z,49.80
2023-01-27T20:46:16.743Z,49.80
2023-01-27T20:48:43.652Z,49.90
2023-01-27T20:51:12.491Z,50.00
2023-01-27T20:53:45.410Z,50.00
2023-01-27T20:56:21.407Z,50.00
2023-01-27T20:58:48.680Z,50.00
2023-01-27T21:01:23.151Z,50.00
2023-01-27T21:03:50.704Z,50.10
2023-01-27T21:06:19.394Z,50.10
2023-01-27T21:08:47.628Z,50.20
2023-01-27T21:11:18.907Z,50.10
2023-01-27T21:13:47.116Z,50.20
2023-01-27T21:16:14.592Z,50.20
2023-01-27T21:18:41.405Z,50.30
2023-01-27T21:21:20.046Z,50.30
2023-01-27T21:23:46.619Z,50.30
2023-01-27T21:26:14.248Z,50.30
2023-01-27T21:28:40.902Z,50.30
2023-01-27T21:31:10.381Z,50.40
2023-01-27T21:33:38.457Z,50.30
2023-01-27T21:36:09.306Z,50.40
2023-01-27T21:38:37.056Z,50.40
2023-01-27T21:41:13.420Z,50.40
2023-01-27T21:43:58.616Z,50.40
2023-01-27T21:46:25.392Z,50.40
2023-01-27T21:48:52.190Z,50.50
2023-01-27T21:51:18.832Z,50.50
2023-01-27T21:53:45.377Z,50.50
2023-01-27T21:56:13.229Z,50.50
2023-01-27T21:58:40.302Z,50.50
2023-01-27T22:01:08.474Z,50.50
2023-01-27T22:03:39.679Z,50.50
2023-01-27T22:06:08.384Z,50.50
2023-01-27T22:08:35.754Z,50.60
2023-01-27T22:11:07.319Z,50.50
2023-01-27T22:13:34.803Z,50.60
2023-01-27T22:16:02.210Z,50.50
2023-01-27T22:18:29.369Z,50.60
2023-01-27T22:20:56.560Z,50.60
2023-01-27T22:23:24.490Z,50.60
2023-01-27T22:25:52.305Z,50.60
2023-01-27T22:28:20.326Z,50.60
2023-01-27T22:30:47.027Z,50.70
2023-01-27T22:33:13.648Z,50.70
2023-01-27T22:35:40.981Z,50.70
2023-01-27T22:38:07.738Z,50.70
2023-01-27T22:40:34.350Z,50.60
2023-01-27T22:43:01.442Z,50.70
2023-01-27T22:45:30.095Z,50.70
2023-01-27T22:47:57.612Z,50.70
2023-01-27T22:50:24.425Z,50.70
2023-01-27T22:52:51.091Z,50.70
2023-01-27T22:55:20.165Z,50.70
2023-01-27T22:57:48.575Z,50.70
2023-01-27T23:00:17.978Z,50.70
2023-01-27T23:02:44.575Z,50.70
2023-01-27T23:05:11.589Z,50.80
2023-01-27T23:07:38.397Z,50.80
2023-01-27T23:10:05.768Z,50.80
2023-01-27T23:12:32.458Z,50.90
2023-01-27T23:15:01.698Z,50.80
2023-01-27T23:17:28.911Z,50.80
2023-01-27T23:19:55.504Z,50.80
2023-01-27T23:22:22.069Z,50.80
2023-01-27T23:24:48.725Z,50.90
2023-01-27T23:27:15.369Z,50.90
2023-01-27T23:29:42.407Z,50.90
2023-01-27T23:32:09.021Z,50.80
2023-01-27T23:34:35.621Z,50.90
2023-01-27T23:37:02.351Z,50.90
2023-01-27T23:39:28.984Z,50.90
2023-01-27T23:41:55.541Z,50.80
2023-01-27T23:44:22.084Z,50.90
2023-01-27T23:46:48.659Z,50.90
2023-01-27T23:49:15.299Z,50.90
2023-01-27T23:51:41.996Z,50.80
2023-01-27T23:54:08.694Z,50.90
2023-01-27T23:56:35.261Z,50.90
2023-01-27T23:59:03.144Z,50.90
